Portada
METAR-TAF:

METAR-TAF

Aeroports :

Esmeraldas, Equador

latitud: 00-58-43N, longitud: 079-37-36W, altitud: 10 m

Observació

L'informe es va fer fa 17 minuts, a les 17:00 UTC
Vent 9 kt del Oest/Sud-Oest
Temperatura 28°C
Humitat 74%
Pressió 1014 hPa
Visibilitat 10 km o més
Escasses núvols a una alçada de 2300 ft

METAR: SETN 051700Z 24009KT 9999 FEW023 28/23 Q1013 A2993

Hora: 12:17 (17:17 UTC)


TAF: manca

Observacions i pronòstics meteorològics de més de 4000 aeroports (METAR i TAF).

Les estacions disponibles són els punts grocs i vermells al mapa.

Posi el ratolí al punt desitjat per veure el nom de l'estació.

Feu clic per veure les observacions i els pronòstics meteorològics.

Per canviar el mapa: feu clic els botons verds amb una creu de color negre per apropar; al botó verd amb un guió per allunyar la imatge; o en les fletxes verdes per a mapes adjacents.


METAR-TAF: